»·PEaware :: MNL886 CYFB-CYCY

MNL886 :: CYFB-CYCY

FLIGHT INFORMATION

Flight Status: Arrived
Operator: Unknown
More flights by this operator :: More flights under this callsign
Pilot: Josef V. (384)
Aircraft: BOEING 727-200
(B722)
More flights by this aircraft type
Origin: CYFB Iqaluit
Canada
Destination: CYCY Clyde River
Canada
More flights between these airports :: More routes between these airports
Route: DCT YCY
File this flight plan on PilotEdge
Remarks: / M-SDGHIWRZ / S REG / CJESS PER / C NAV / RNP10 RNVD1E2A1
Altitude:
(Current/Filed)
30,000ft
Speed:
(Current/Filed)
0kts
Departed: 22-Mar-12 06:15 PM
Arrived: 22-Mar-12 06:55 PM
Distance/Time
Traveled:
405nm/0:40
Distance/Time
To Go:
Arrived

Flight Plot

Page will automatically refresh every two minutes.


Map Options




Map Legend


Flown Route
Filed Route
Departure Airport
Arrival Airport
Navaid (VOR, NDB)
Fix

Horizontal Profiles

Position Reports

Time Latitude Longitude Heading Altitude Ground
Speed
22-Mar-12 18:13 66.642396 -68.669971 0 30005ft 496kts
22-Mar-12 18:14 66.780115 -68.665647 0 30003ft 502kts
22-Mar-12 18:15 66.920288 -68.661194 0 30003ft 506kts
22-Mar-12 18:16 67.036395 -68.657467 0 30002ft 507kts
22-Mar-12 18:17 67.201687 -68.652099 0 30002ft 508kts
22-Mar-12 18:18 67.319369 -68.648232 0 30002ft 508kts
22-Mar-12 18:19 67.458851 -68.643599 0 30002ft 508kts
22-Mar-12 18:20 67.599325 -68.638877 0 30002ft 509kts
22-Mar-12 18:21 67.740802 -68.634064 0 30002ft 509kts
22-Mar-12 18:22 67.884458 -68.629117 0 30002ft 509kts
22-Mar-12 18:23 68.025480 -68.624201 0 30002ft 509kts
22-Mar-12 18:24 68.143279 -68.620048 0 30002ft 509kts
22-Mar-12 18:25 68.283529 -68.615048 0 30002ft 509kts
22-Mar-12 18:26 68.372435 -68.611846 0 29999ft 504kts
22-Mar-12 18:27 68.511489 -68.606786 0 30003ft 501kts
22-Mar-12 18:28 68.651172 -68.601642 0 30003ft 506kts
22-Mar-12 18:29 68.792289 -68.596378 0 30002ft 509kts
22-Mar-12 18:30 68.933696 -68.591036 0 30002ft 510kts
22-Mar-12 18:31 69.072558 -68.585722 0 29932ft 476kts
22-Mar-12 18:32 69.197360 -68.580892 0 28881ft 432kts
22-Mar-12 18:33 69.315440 -68.576272 0 26655ft 418kts
22-Mar-12 18:34 69.429338 -68.571763 0 24522ft 405kts
22-Mar-12 18:35 69.540043 -68.567335 0 22444ft 392kts
22-Mar-12 18:36 69.647307 -68.562996 0 20428ft 381kts
22-Mar-12 18:37 69.751380 -68.558747 0 18473ft 370kts
22-Mar-12 18:38 69.852515 -68.554578 0 16575ft 359kts
22-Mar-12 18:39 69.951336 -68.550465 0 14726ft 350kts
22-Mar-12 18:40 70.042995 -68.546612 0 14105ft 301kts
22-Mar-12 18:41 70.122819 -68.528383 12 12732ft 285kts
22-Mar-12 18:42 70.196994 -68.454347 19 11144ft 278kts
22-Mar-12 18:43 70.267351 -68.365458 23 9613ft 272kts
22-Mar-12 18:44 70.332873 -68.280906 23 8573ft 247kts
22-Mar-12 18:45 70.394382 -68.201468 23 7121ft 242kts
22-Mar-12 18:46 70.455357 -68.122658 23 5703ft 237kts
22-Mar-12 18:47 70.505982 -68.057172 22 5035ft 204kts
22-Mar-12 18:48 70.549357 -68.128359 309 3475ft 199kts
22-Mar-12 18:49 70.578542 -68.262941 281 2065ft 195kts
22-Mar-12 18:50 70.576445 -68.358507 251 1731ft 146kts
22-Mar-12 18:51 70.551434 -68.446109 209 1401ft 139kts
22-Mar-12 18:52 70.515406 -68.489038 198 802ft 136kts
22-Mar-12 18:53 70.481434 -68.522221 199 99ft 84kts
22-Mar-12 18:54 70.475967 -68.526374 6 99ft 17kts
22-Mar-12 18:55 70.481135 -68.521366 106 99ft 5kts
22-Mar-12 18:56 70.481111 -68.521116 105 99ft 0kts
22-Mar-12 18:57 70.481111 -68.521116 105 99ft 0kts
22-Mar-12 18:58 70.481111 -68.521116 105 99ft 0kts
22-Mar-12 18:59 70.481111 -68.521116 105 99ft 0kts
22-Mar-12 19:00 70.481111 -68.521116 105 99ft 0kts
22-Mar-12 19:01 70.481753 -68.521716 354 99ft 7kts
22-Mar-12 19:02 70.485222 -68.518510 18 99ft 19kts
22-Mar-12 19:03 70.488066 -68.515628 305 99ft 3kts
22-Mar-12 19:04 70.487689 -68.516246 196 99ft 0kts
22-Mar-12 19:05 70.488224 -68.515670 198 99ft 0kts
22-Mar-12 19:06 70.478496 -68.525071 198 101ft 122kts
22-Mar-12 19:08 70.463871 -68.678703 310 1719ft 239kts
22-Mar-12 19:09 70.508324 -68.833423 311 4753ft 253kts

Navigation Log

Ident Type
Flight plan parsing failed, navigation log unavailable